createdAt,value
2019-05-02T00:01:28.083Z,6.19
2019-05-02T00:03:58.651Z,6.13
2019-05-02T00:06:28.440Z,6.18
2019-05-02T00:08:57.907Z,6.16
2019-05-02T00:11:29.088Z,5.94
2019-05-02T00:13:58.835Z,5.86
2019-05-02T00:16:29.769Z,5.89
2019-05-02T00:18:59.204Z,5.92
2019-05-02T00:21:32.928Z,5.86
2019-05-02T00:24:03.050Z,5.91
2019-05-02T00:26:31.233Z,5.83
2019-05-02T00:29:00.637Z,5.92
2019-05-02T00:31:30.063Z,5.84
2019-05-02T00:33:59.522Z,5.82
2019-05-02T00:36:28.898Z,5.76
2019-05-02T00:38:58.356Z,5.69
2019-05-02T00:41:27.681Z,5.71
2019-05-02T00:43:57.132Z,5.68
2019-05-02T00:46:30.271Z,5.66
2019-05-02T00:49:01.794Z,5.63
2019-05-02T00:51:30.645Z,5.65
2019-05-02T00:54:00.111Z,5.57
2019-05-02T00:56:29.584Z,5.48
2019-05-02T00:59:02.294Z,5.50
2019-05-02T01:02:05.329Z,5.45
2019-05-02T01:04:37.299Z,5.45
2019-05-02T01:07:07.508Z,5.41
2019-05-02T01:09:36.856Z,5.38
2019-05-02T01:12:08.466Z,5.39
2019-05-02T01:14:37.498Z,5.43
2019-05-02T01:17:06.936Z,5.34
2019-05-02T01:19:36.188Z,5.34
2019-05-02T01:22:10.642Z,5.45
2019-05-02T01:24:41.494Z,5.27
2019-05-02T01:27:17.562Z,5.27
2019-05-02T01:30:08.558Z,5.29
2019-05-02T01:32:47.582Z,5.33
2019-05-02T01:35:38.696Z,5.52
2019-05-02T01:38:15.916Z,5.37
2019-05-02T01:40:48.173Z,5.13
2019-05-02T01:43:36.316Z,5.18
2019-05-02T01:46:05.897Z,5.09
2019-05-02T01:48:35.349Z,5.10
2019-05-02T01:51:10.466Z,5.24
2019-05-02T01:53:36.120Z,5.31
2019-05-02T01:56:05.709Z,5.20
2019-05-02T01:58:35.222Z,5.15
2019-05-02T02:01:05.603Z,5.19
2019-05-02T02:03:35.292Z,5.08
2019-05-02T02:06:08.134Z,4.94
2019-05-02T02:08:35.959Z,5.03
2019-05-02T02:11:05.326Z,4.97
2019-05-02T02:13:36.515Z,4.93
2019-05-02T02:16:06.145Z,4.82
2019-05-02T02:18:39.435Z,4.86
2019-05-02T02:21:43.163Z,4.89
2019-05-02T02:24:34.944Z,4.88
2019-05-02T02:27:04.450Z,4.81
2019-05-02T02:29:33.873Z,4.77
2019-05-02T02:32:03.431Z,4.71
2019-05-02T02:34:32.726Z,4.78
2019-05-02T02:37:05.296Z,4.79
2019-05-02T02:39:33.260Z,4.86
2019-05-02T02:42:02.702Z,4.76
2019-05-02T02:44:59.993Z,4.94
2019-05-02T02:47:29.623Z,4.95
2019-05-02T02:50:02.286Z,4.81
2019-05-02T02:52:30.265Z,4.71
2019-05-02T02:54:59.711Z,4.73
2019-05-02T02:57:29.268Z,4.67
2019-05-02T03:00:06.715Z,4.70
2019-05-02T03:02:29.886Z,4.58
2019-05-02T03:04:59.360Z,4.59
2019-05-02T03:07:29.084Z,4.69
2019-05-02T03:09:59.725Z,4.94
2019-05-02T03:13:00.870Z,4.91
2019-05-02T03:15:32.554Z,5.03
2019-05-02T03:18:02.132Z,5.00
2019-05-02T03:20:39.880Z,5.05
2019-05-02T03:23:03.416Z,4.97
2019-05-02T03:25:49.824Z,5.03
2019-05-02T03:28:04.142Z,5.13
2019-05-02T03:30:37.406Z,5.12
2019-05-02T03:33:10.929Z,5.20
2019-05-02T03:35:43.079Z,5.36
2019-05-02T03:38:07.213Z,5.44
2019-05-02T03:40:38.924Z,5.55
2019-05-02T03:43:08.165Z,5.55
2019-05-02T03:45:40.063Z,5.42
2019-05-02T03:48:08.521Z,5.48
2019-05-02T03:50:38.448Z,5.51
2019-05-02T03:53:07.751Z,5.50
2019-05-02T03:55:37.212Z,5.39
2019-05-02T03:58:13.301Z,5.34
2019-05-02T04:00:37.746Z,5.50
2019-05-02T04:03:07.317Z,5.25
2019-05-02T04:05:40.521Z,5.16
2019-05-02T04:08:19.962Z,5.14
2019-05-02T04:11:23.288Z,5.13
2019-05-02T04:13:54.317Z,5.15
2019-05-02T04:16:25.945Z,5.08
2019-05-02T04:18:58.403Z,5.17
2019-05-02T04:21:27.984Z,5.19
2019-05-02T04:24:06.745Z,5.31
2019-05-02T04:26:29.274Z,5.30
2019-05-02T04:28:58.826Z,5.17
2019-05-02T04:31:31.389Z,5.24
2019-05-02T04:33:59.173Z,5.25
2019-05-02T04:36:28.511Z,5.30
2019-05-02T04:38:59.529Z,5.39
2019-05-02T04:41:31.723Z,5.39
2019-05-02T04:44:01.508Z,5.40
2019-05-02T04:46:31.485Z,5.35
2019-05-02T04:49:01.013Z,5.46
2019-05-02T04:51:31.911Z,5.62
2019-05-02T04:54:01.887Z,5.60
2019-05-02T04:56:31.794Z,5.68
2019-05-02T04:59:02.266Z,5.71
2019-05-02T05:01:41.933Z,5.81
2019-05-02T05:04:03.501Z,5.78
2019-05-02T05:06:32.850Z,5.90
2019-05-02T05:09:03.961Z,5.93
2019-05-02T05:11:33.269Z,5.90
2019-05-02T05:14:02.556Z,6.11
2019-05-02T05:16:31.907Z,6.29
2019-05-02T05:19:01.173Z,6.27
2019-05-02T05:21:30.557Z,6.42
2019-05-02T05:24:18.794Z,6.68
2019-05-02T05:26:51.280Z,6.94
2019-05-02T05:29:23.315Z,6.95
2019-05-02T05:31:55.069Z,7.07
2019-05-02T05:34:27.451Z,6.96
2019-05-02T05:36:53.854Z,7.27
2019-05-02T05:39:23.138Z,7.42
2019-05-02T05:41:52.555Z,7.56
2019-05-02T05:44:23.291Z,8.00
2019-05-02T05:46:53.053Z,8.05
2019-05-02T05:49:22.429Z,8.00
2019-05-02T05:51:54.380Z,8.29
2019-05-02T05:54:22.746Z,8.30
2019-05-02T05:56:52.446Z,8.26
2019-05-02T05:59:27.293Z,8.38
2019-05-02T06:01:53.328Z,8.42
2019-05-02T06:04:24.040Z,8.46
2019-05-02T06:06:58.796Z,8.59
2019-05-02T06:09:26.377Z,8.63
2019-05-02T06:11:56.680Z,8.72
2019-05-02T06:14:26.489Z,8.68
2019-05-02T06:16:55.849Z,8.85
2019-05-02T06:19:25.355Z,9.02
2019-05-02T06:21:54.748Z,9.32
2019-05-02T06:24:24.134Z,9.54
2019-05-02T06:26:53.623Z,9.71
2019-05-02T06:29:23.170Z,9.98
2019-05-02T06:31:52.574Z,10.13
2019-05-02T06:34:22.104Z,10.22
2019-05-02T06:36:51.565Z,10.47
2019-05-02T06:39:21.076Z,10.63
2019-05-02T06:41:51.983Z,10.78
2019-05-02T06:44:24.181Z,10.72
2019-05-02T06:46:52.702Z,10.75
2019-05-02T06:49:24.179Z,10.30
2019-05-02T06:51:56.192Z,10.05
2019-05-02T06:54:24.431Z,10.09
2019-05-02T06:56:53.874Z,10.26
2019-05-02T06:59:23.340Z,10.55
2019-05-02T07:01:57.362Z,10.37
2019-05-02T07:04:25.063Z,11.52
2019-05-02T07:06:59.453Z,12.06
2019-05-02T07:09:39.481Z,12.73
2019-05-02T07:12:01.245Z,12.20
2019-05-02T07:14:28.314Z,11.56
2019-05-02T07:17:11.163Z,11.58
2019-05-02T07:19:44.089Z,11.76
2019-05-02T07:22:13.403Z,11.52
2019-05-02T07:24:42.770Z,10.95
2019-05-02T07:27:12.483Z,10.42
2019-05-02T07:29:41.773Z,10.64
2019-05-02T07:32:11.453Z,11.23
2019-05-02T07:34:44.328Z,11.30
2019-05-02T07:37:12.679Z,11.35
2019-05-02T07:39:43.529Z,11.31
2019-05-02T07:42:12.899Z,11.27
2019-05-02T07:44:42.343Z,11.43
2019-05-02T07:47:11.687Z,11.79
2019-05-02T07:49:41.091Z,11.73
2019-05-02T07:52:10.592Z,12.13
2019-05-02T07:54:39.982Z,12.45
2019-05-02T07:57:09.397Z,12.64
2019-05-02T07:59:38.760Z,12.99
2019-05-02T08:02:08.372Z,14.46
2019-05-02T08:04:37.701Z,14.07
2019-05-02T08:07:07.451Z,14.23
2019-05-02T08:09:39.256Z,15.49
2019-05-02T08:12:08.305Z,16.54
2019-05-02T08:14:37.703Z,18.06
2019-05-02T08:17:16.320Z,19.59
2019-05-02T08:19:41.785Z,21.22
2019-05-02T08:22:13.825Z,19.68
2019-05-02T08:24:40.511Z,19.51
2019-05-02T08:27:34.760Z,20.76
2019-05-02T08:30:04.238Z,19.09
2019-05-02T08:32:33.795Z,19.54
2019-05-02T08:35:03.059Z,20.99
2019-05-02T08:37:35.307Z,21.45
2019-05-02T08:40:05.391Z,21.96
2019-05-02T08:42:34.824Z,24.19
2019-05-02T08:45:04.666Z,24.40
2019-05-02T08:47:34.114Z,24.18
2019-05-02T08:50:03.521Z,23.29
2019-05-02T08:52:36.880Z,22.78
2019-05-02T08:55:09.004Z,22.37
2019-05-02T08:57:36.310Z,23.20
2019-05-02T09:00:07.071Z,24.06
2019-05-02T09:02:41.408Z,27.21
2019-05-02T09:05:08.203Z,23.97
2019-05-02T09:07:40.050Z,25.15
2019-05-02T09:10:09.077Z,27.47
2019-05-02T09:12:42.236Z,25.14
2019-05-02T09:15:11.838Z,20.53
2019-05-02T09:17:46.115Z,21.68
2019-05-02T09:20:17.848Z,24.24
2019-05-02T09:22:46.499Z,23.77
2019-05-02T09:25:15.271Z,25.03
2019-05-02T09:27:44.713Z,24.36
2019-05-02T09:30:17.138Z,25.08
2019-05-02T09:32:45.506Z,25.41
2019-05-02T09:35:14.909Z,26.91
2019-05-02T09:37:44.229Z,25.02
2019-05-02T09:40:16.739Z,23.30
2019-05-02T09:42:47.496Z,23.25
2019-05-02T09:45:27.856Z,22.74
2019-05-02T09:48:04.006Z,22.91
2019-05-02T09:50:31.197Z,23.26
2019-05-02T09:52:56.786Z,23.83
2019-05-02T09:55:26.255Z,24.15
2019-05-02T09:58:19.483Z,25.53
2019-05-02T10:01:05.681Z,24.44
2019-05-02T10:03:35.135Z,25.72
2019-05-02T10:06:08.302Z,23.83
2019-05-02T10:08:38.345Z,23.13
2019-05-02T10:11:07.032Z,21.88
2019-05-02T10:13:36.376Z,21.89
2019-05-02T10:16:05.771Z,22.03
2019-05-02T10:18:35.287Z,21.43
2019-05-02T10:21:07.829Z,21.57
2019-05-02T10:23:36.325Z,21.75
2019-05-02T10:26:05.848Z,24.88
2019-05-02T10:28:35.182Z,23.71
2019-05-02T10:31:04.729Z,25.89
2019-05-02T10:33:37.562Z,26.16
2019-05-02T10:36:05.435Z,25.10
2019-05-02T10:38:34.802Z,23.07
2019-05-02T10:41:04.921Z,24.87
2019-05-02T10:43:34.159Z,23.82
2019-05-02T10:46:09.903Z,23.64
2019-05-02T10:48:44.425Z,24.33
2019-05-02T10:51:31.642Z,24.68
2019-05-02T10:54:02.272Z,26.76
2019-05-02T10:56:32.434Z,26.93
2019-05-02T10:59:02.326Z,27.15
2019-05-02T11:01:37.315Z,25.99
2019-05-02T11:04:08.704Z,26.06
2019-05-02T11:06:42.702Z,25.48
2019-05-02T11:09:12.102Z,26.28
2019-05-02T11:11:42.487Z,26.31
2019-05-02T11:14:33.741Z,26.04
2019-05-02T11:17:27.837Z,27.67
2019-05-02T11:20:02.836Z,26.57
2019-05-02T11:22:32.334Z,27.01
2019-05-02T11:25:02.149Z,25.36
2019-05-02T11:27:32.899Z,25.57
2019-05-02T11:30:02.803Z,25.57
2019-05-02T11:32:32.754Z,24.19
2019-05-02T11:35:02.969Z,24.16
2019-05-02T11:37:32.934Z,23.91
2019-05-02T11:40:06.151Z,23.05
2019-05-02T11:42:33.342Z,24.03
2019-05-02T11:45:02.859Z,22.80
2019-05-02T11:47:33.716Z,21.84
2019-05-02T11:50:02.972Z,20.03
2019-05-02T11:52:37.178Z,19.01
2019-05-02T11:55:03.368Z,19.14
2019-05-02T11:57:33.178Z,19.97
2019-05-02T12:00:05.093Z,21.85
2019-05-02T12:02:58.098Z,23.96
2019-05-02T12:05:35.403Z,23.41
2019-05-02T12:08:07.754Z,22.81
2019-05-02T12:10:36.627Z,20.75
2019-05-02T12:13:06.603Z,20.04
2019-05-02T12:15:35.364Z,20.71
2019-05-02T12:18:05.225Z,20.69
2019-05-02T12:20:36.724Z,22.32
2019-05-02T12:23:09.017Z,24.07
2019-05-02T12:25:37.113Z,24.27
2019-05-02T12:28:07.027Z,23.47
2019-05-02T12:30:37.855Z,23.66
2019-05-02T12:33:08.104Z,22.55
2019-05-02T12:35:37.622Z,21.11
2019-05-02T12:38:07.024Z,20.75
2019-05-02T12:40:36.513Z,21.19
2019-05-02T12:43:05.991Z,20.68
2019-05-02T12:45:35.374Z,21.16
2019-05-02T12:48:04.815Z,20.86
2019-05-02T12:50:34.147Z,21.91
2019-05-02T12:53:03.491Z,23.13
2019-05-02T12:55:32.779Z,22.83
2019-05-02T12:58:03.136Z,20.49
2019-05-02T13:00:32.741Z,22.09
2019-05-02T13:03:18.221Z,21.84
2019-05-02T13:05:47.725Z,23.96
2019-05-02T13:08:17.060Z,25.21
2019-05-02T13:11:17.414Z,23.68
2019-05-02T13:13:46.910Z,21.82
2019-05-02T13:16:16.345Z,21.19
2019-05-02T13:18:45.701Z,21.72
2019-05-02T13:21:20.750Z,21.53
2019-05-02T13:23:54.632Z,21.16
2019-05-02T13:26:27.094Z,21.51
2019-05-02T13:28:54.977Z,21.92
2019-05-02T13:31:49.078Z,21.33
2019-05-02T13:34:31.942Z,23.26
2019-05-02T13:37:02.912Z,25.89
2019-05-02T13:39:39.342Z,25.22
2019-05-02T13:42:09.630Z,27.07
2019-05-02T13:44:45.485Z,28.38
2019-05-02T13:47:15.412Z,26.86
2019-05-02T13:49:54.107Z,26.69
2019-05-02T13:52:15.927Z,26.89
2019-05-02T13:54:45.473Z,27.81
2019-05-02T13:57:14.855Z,30.55
2019-05-02T13:59:44.212Z,29.50
2019-05-02T14:02:37.327Z,28.66
2019-05-02T14:05:08.693Z,28.38
2019-05-02T14:07:38.789Z,29.45
2019-05-02T14:10:18.788Z,29.49
2019-05-02T14:12:52.828Z,29.48
2019-05-02T14:15:24.556Z,28.53
2019-05-02T14:17:53.997Z,29.16
2019-05-02T14:20:23.499Z,27.49
2019-05-02T14:22:52.921Z,27.49
2019-05-02T14:25:22.523Z,26.98
2019-05-02T14:27:55.453Z,26.29
2019-05-02T14:30:36.219Z,25.42
2019-05-02T14:32:58.256Z,24.62
2019-05-02T14:35:30.016Z,22.43
2019-05-02T14:38:09.305Z,22.02
2019-05-02T14:40:45.345Z,21.48
2019-05-02T14:43:17.723Z,22.36
2019-05-02T14:45:51.003Z,22.88
2019-05-02T14:48:23.616Z,21.96
2019-05-02T14:50:52.621Z,23.45
2019-05-02T14:53:25.325Z,23.58
2019-05-02T14:55:57.589Z,24.05
2019-05-02T14:58:25.681Z,23.35
2019-05-02T15:00:56.657Z,23.52
2019-05-02T15:03:28.453Z,23.74
2019-05-02T15:05:59.102Z,22.42
2019-05-02T15:08:28.270Z,21.60
2019-05-02T15:10:57.727Z,20.60
2019-05-02T15:13:27.194Z,20.23
2019-05-02T15:15:56.615Z,19.92
2019-05-02T15:18:25.902Z,20.47
2019-05-02T15:20:55.247Z,20.34
2019-05-02T15:23:24.770Z,20.06
2019-05-02T15:25:56.060Z,20.48
2019-05-02T15:28:25.347Z,20.99
2019-05-02T15:31:05.721Z,20.78
2019-05-02T15:33:38.919Z,21.25
2019-05-02T15:36:08.894Z,21.37
2019-05-02T15:38:45.560Z,21.22
2019-05-02T15:41:12.617Z,20.98
2019-05-02T15:43:44.276Z,21.10
2019-05-02T15:46:17.319Z,20.37
2019-05-02T15:48:42.799Z,19.78
2019-05-02T15:51:12.418Z,20.09
2019-05-02T15:54:04.477Z,20.05
2019-05-02T15:56:24.372Z,20.34
2019-05-02T15:58:58.081Z,19.93
2019-05-02T16:01:36.669Z,20.38
2019-05-02T16:04:09.146Z,20.50
2019-05-02T16:06:38.583Z,20.31
2019-05-02T16:09:08.488Z,20.47
2019-05-02T16:11:37.995Z,20.03
2019-05-02T16:14:07.384Z,20.38
2019-05-02T16:16:41.133Z,19.71
2019-05-02T16:19:07.840Z,18.92
2019-05-02T16:21:45.612Z,18.55
2019-05-02T16:24:22.974Z,18.50
2019-05-02T16:26:56.609Z,18.65
2019-05-02T16:29:28.313Z,19.04
2019-05-02T16:32:14.293Z,19.23
2019-05-02T16:34:54.841Z,19.61
2019-05-02T16:37:24.537Z,19.90
2019-05-02T16:39:54.128Z,19.77
2019-05-02T16:42:23.645Z,19.86
2019-05-02T16:44:54.840Z,19.56
2019-05-02T16:47:24.081Z,19.09
2019-05-02T16:49:56.396Z,18.71
2019-05-02T16:52:24.562Z,18.22
2019-05-02T16:54:54.053Z,17.54
2019-05-02T16:57:23.848Z,17.73
2019-05-02T17:00:01.002Z,17.46
2019-05-02T17:02:24.700Z,17.29
2019-05-02T17:04:54.584Z,16.94
2019-05-02T17:07:52.970Z,16.93
2019-05-02T17:10:29.220Z,17.11
2019-05-02T17:13:00.304Z,17.04
2019-05-02T17:15:35.450Z,16.77
2019-05-02T17:18:12.623Z,16.58
2019-05-02T17:20:37.174Z,16.38
2019-05-02T17:23:07.755Z,16.06
2019-05-02T17:25:37.192Z,15.99
2019-05-02T17:28:10.263Z,15.91
2019-05-02T17:30:38.828Z,15.96
2019-05-02T17:33:14.388Z,15.88
2019-05-02T17:35:41.668Z,15.69
2019-05-02T17:38:12.055Z,15.58
2019-05-02T17:40:42.236Z,15.15
2019-05-02T17:43:11.948Z,14.87
2019-05-02T17:45:41.389Z,14.84
2019-05-02T17:48:16.606Z,15.00
2019-05-02T17:51:06.655Z,14.45
2019-05-02T17:53:41.343Z,14.36
2019-05-02T17:56:07.160Z,14.16
2019-05-02T17:58:36.537Z,13.80
2019-05-02T18:01:10.187Z,13.66
2019-05-02T18:03:39.534Z,13.34
2019-05-02T18:06:13.213Z,13.35
2019-05-02T18:08:41.727Z,13.33
2019-05-02T18:11:12.700Z,13.27
2019-05-02T18:13:42.402Z,13.04
2019-05-02T18:16:15.153Z,12.95
2019-05-02T18:18:46.639Z,12.99
2019-05-02T18:21:17.271Z,12.76
2019-05-02T18:23:45.183Z,12.52
2019-05-02T18:26:14.592Z,12.42
2019-05-02T18:28:48.936Z,12.33
2019-05-02T18:31:15.315Z,12.43
2019-05-02T18:33:44.745Z,12.38
2019-05-02T18:36:17.293Z,12.38
2019-05-02T18:38:45.310Z,12.18
2019-05-02T18:41:16.270Z,12.07
2019-05-02T18:43:46.362Z,12.04
2019-05-02T18:46:16.015Z,11.79
2019-05-02T18:48:48.945Z,11.82
2019-05-02T18:51:19.001Z,11.79
2019-05-02T18:53:48.502Z,11.71
2019-05-02T18:56:18.132Z,11.55
2019-05-02T18:58:47.937Z,11.51
2019-05-02T19:01:19.436Z,11.52
2019-05-02T19:03:52.487Z,11.51
2019-05-02T19:06:21.887Z,11.34
2019-05-02T19:08:53.057Z,11.38
2019-05-02T19:11:26.787Z,11.35
2019-05-02T19:13:54.095Z,11.29
2019-05-02T19:16:27.245Z,11.24
2019-05-02T19:18:57.437Z,11.00
2019-05-02T19:21:31.256Z,11.10
2019-05-02T19:23:57.817Z,10.98
2019-05-02T19:26:29.989Z,10.89
2019-05-02T19:29:08.316Z,10.94
2019-05-02T19:31:46.144Z,10.90
2019-05-02T19:34:16.894Z,10.88
2019-05-02T19:36:46.503Z,10.88
2019-05-02T19:39:17.240Z,10.86
2019-05-02T19:41:46.612Z,10.95
2019-05-02T19:44:21.365Z,11.01
2019-05-02T19:46:47.094Z,10.92
2019-05-02T19:49:16.491Z,10.91
2019-05-02T19:51:50.557Z,10.92
2019-05-02T19:54:17.977Z,10.88
2019-05-02T19:56:47.764Z,10.78
2019-05-02T19:59:24.626Z,10.95
2019-05-02T20:01:49.566Z,10.90
2019-05-02T20:04:19.518Z,10.93
2019-05-02T20:06:49.705Z,10.74
2019-05-02T20:09:19.473Z,10.73
2019-05-02T20:11:48.891Z,10.65
2019-05-02T20:14:18.542Z,10.77
2019-05-02T20:16:52.810Z,10.60
2019-05-02T20:19:26.806Z,10.50
2019-05-02T20:22:06.606Z,10.69
2019-05-02T20:25:08.559Z,10.75
2019-05-02T20:27:37.980Z,10.70
2019-05-02T20:30:12.011Z,10.53
2019-05-02T20:32:42.852Z,10.57
2019-05-02T20:35:13.092Z,10.45
2019-05-02T20:37:42.510Z,10.36
2019-05-02T20:40:27.510Z,10.41
2019-05-02T20:42:56.855Z,10.40
2019-05-02T20:45:26.627Z,10.19
2019-05-02T20:47:56.464Z,10.16
2019-05-02T20:50:26.819Z,10.09
2019-05-02T20:52:56.479Z,10.22
2019-05-02T20:55:27.230Z,10.41
2019-05-02T20:57:57.182Z,10.40
2019-05-02T21:00:29.406Z,10.22
2019-05-02T21:02:59.119Z,10.21
2019-05-02T21:05:35.307Z,10.11
2019-05-02T21:08:42.571Z,10.20
2019-05-02T21:11:12.538Z,10.19
2019-05-02T21:13:42.151Z,10.16
2019-05-02T21:16:12.534Z,10.27
2019-05-02T21:18:42.631Z,10.30
2019-05-02T21:21:12.688Z,10.26
2019-05-02T21:23:47.318Z,10.31
2019-05-02T21:26:13.933Z,10.25
2019-05-02T21:28:46.096Z,10.19
2019-05-02T21:31:14.869Z,10.17
2019-05-02T21:33:44.458Z,10.20
2019-05-02T21:36:13.865Z,10.24
2019-05-02T21:38:43.246Z,10.14
2019-05-02T21:41:12.811Z,10.21
2019-05-02T21:43:42.694Z,10.19
2019-05-02T21:46:12.702Z,10.35
2019-05-02T21:48:42.651Z,10.35
2019-05-02T21:51:38.609Z,10.41
2019-05-02T21:54:29.958Z,10.50
2019-05-02T21:57:08.477Z,10.52
2019-05-02T21:59:38.379Z,10.46
2019-05-02T22:02:11.895Z,10.44
2019-05-02T22:04:42.366Z,10.36
2019-05-02T22:07:12.194Z,10.42
2019-05-02T22:09:41.759Z,10.30
2019-05-02T22:12:12.008Z,10.40
2019-05-02T22:14:42.148Z,10.39
2019-05-02T22:17:12.720Z,10.47
2019-05-02T22:19:42.094Z,10.51
2019-05-02T22:22:12.226Z,10.26
2019-05-02T22:24:42.132Z,10.31
2019-05-02T22:27:12.369Z,10.36
2019-05-02T22:29:43.035Z,10.31
2019-05-02T22:32:12.433Z,10.20
2019-05-02T22:34:42.607Z,10.23
2019-05-02T22:37:14.158Z,10.30
2019-05-02T22:39:48.972Z,10.21
2019-05-02T22:42:18.158Z,10.16
2019-05-02T22:44:47.325Z,10.31
2019-05-02T22:47:16.534Z,10.37
2019-05-02T22:49:45.724Z,10.34
2019-05-02T22:52:14.877Z,10.26
2019-05-02T22:54:44.037Z,10.25
2019-05-02T22:57:14.260Z,10.24
2019-05-02T22:59:43.666Z,10.22
2019-05-02T23:02:13.124Z,10.14
2019-05-02T23:04:42.309Z,10.18
2019-05-02T23:07:12.670Z,10.17
2019-05-02T23:09:43.666Z,10.06
2019-05-02T23:12:13.243Z,10.06
2019-05-02T23:14:42.451Z,10.10
2019-05-02T23:17:12.725Z,9.93
2019-05-02T23:19:42.435Z,10.08
2019-05-02T23:22:12.724Z,10.02
2019-05-02T23:24:56.134Z,10.15
2019-05-02T23:27:38.168Z,10.07
2019-05-02T23:30:11.549Z,9.96
2019-05-02T23:32:42.373Z,10.08
2019-05-02T23:35:11.819Z,9.98
2019-05-02T23:37:42.263Z,9.92
2019-05-02T23:40:12.474Z,9.88
2019-05-02T23:42:41.859Z,9.79
2019-05-02T23:45:12.100Z,9.63
2019-05-02T23:47:42.193Z,9.64
2019-05-02T23:50:12.113Z,9.64
2019-05-02T23:52:41.560Z,9.49
2019-05-02T23:55:12.188Z,9.56
2019-05-02T23:57:42.142Z,9.34
